sensor_id;sensor_type;location;lat;lon;timestamp;pressure;altitude;pressure_sealevel;temperature;humidity
13434;BME280;6789;47.678;9.158;2022-07-05T00:00:12;97086.50;;;18.15;100.00
13434;BME280;6789;47.678;9.158;2022-07-05T00:05:28;97085.19;;;18.17;100.00
13434;BME280;6789;47.678;9.158;2022-07-05T00:10:54;97079.09;;;18.17;100.00
13434;BME280;6789;47.678;9.158;2022-07-05T00:16:51;97076.97;;;18.19;100.00
13434;BME280;6789;47.678;9.158;2022-07-05T00:22:08;97086.59;;;18.20;100.00
13434;BME280;6789;47.678;9.158;2022-07-05T00:27:49;97078.06;;;18.33;100.00
13434;BME280;6789;47.678;9.158;2022-07-05T00:33:08;97079.13;;;18.27;100.00
13434;BME280;6789;47.678;9.158;2022-07-05T00:38:48;97085.53;;;18.26;100.00
13434;BME280;6789;47.678;9.158;2022-07-05T00:44:10;97081.28;;;18.25;100.00
13434;BME280;6789;47.678;9.158;2022-07-05T00:49:29;97077.28;;;18.22;100.00
13434;BME280;6789;47.678;9.158;2022-07-05T00:54:49;97075.16;;;18.29;100.00
13434;BME280;6789;47.678;9.158;2022-07-05T01:00:05;97066.94;;;18.26;100.00
13434;BME280;6789;47.678;9.158;2022-07-05T01:06:25;97066.66;;;18.22;100.00
13434;BME280;6789;47.678;9.158;2022-07-05T01:11:49;97074.34;;;18.24;100.00
13434;BME280;6789;47.678;9.158;2022-07-05T01:17:55;97066.09;;;18.15;100.00
13434;BME280;6789;47.678;9.158;2022-07-05T01:29:03;97071.41;;;18.15;100.00
13434;BME280;6789;47.678;9.158;2022-07-05T01:34:44;97069.06;;;18.29;100.00
13434;BME280;6789;47.678;9.158;2022-07-05T01:40:23;97054.47;;;18.41;100.00
13434;BME280;6789;47.678;9.158;2022-07-05T01:45:43;97054.97;;;18.48;100.00
13434;BME280;6789;47.678;9.158;2022-07-05T01:51:44;97060.03;;;18.50;100.00
13434;BME280;6789;47.678;9.158;2022-07-05T01:56:56;97063.25;;;18.57;100.00
13434;BME280;6789;47.678;9.158;2022-07-05T02:03:03;97062.94;;;18.43;100.00
13434;BME280;6789;47.678;9.158;2022-07-05T02:08:13;97062.16;;;18.48;100.00
13434;BME280;6789;47.678;9.158;2022-07-05T02:13:51;97063.25;;;18.57;100.00
13434;BME280;6789;47.678;9.158;2022-07-05T02:20:03;97064.53;;;18.54;100.00
13434;BME280;6789;47.678;9.158;2022-07-05T02:25:28;97066.41;;;18.49;100.00
13434;BME280;6789;47.678;9.158;2022-07-05T02:30:46;97062.69;;;18.40;100.00
13434;BME280;6789;47.678;9.158;2022-07-05T02:36:08;97071.69;;;18.39;100.00
13434;BME280;6789;47.678;9.158;2022-07-05T02:55:58;97073.31;;;18.60;100.00
13434;BME280;6789;47.678;9.158;2022-07-05T03:01:43;97073.59;;;18.53;100.00
13434;BME280;6789;47.678;9.158;2022-07-05T03:08:03;97081.56;;;18.53;100.00
13434;BME280;6789;47.678;9.158;2022-07-05T03:13:09;97083.41;;;18.58;100.00
13434;BME280;6789;47.678;9.158;2022-07-05T03:18:01;97095.13;;;18.62;100.00
13434;BME280;6789;47.678;9.158;2022-07-05T03:22:53;97100.94;;;18.63;100.00
13434;BME280;6789;47.678;9.158;2022-07-05T03:27:45;97104.13;;;18.70;100.00
13434;BME280;6789;47.678;9.158;2022-07-05T03:37:44;97104.16;;;18.75;100.00
13434;BME280;6789;47.678;9.158;2022-07-05T03:47:43;97101.50;;;18.80;100.00
13434;BME280;6789;47.678;9.158;2022-07-05T03:52:35;97107.59;;;19.01;100.00
13434;BME280;6789;47.678;9.158;2022-07-05T03:57:26;97102.03;;;18.92;100.00
13434;BME280;6789;47.678;9.158;2022-07-05T04:02:36;97109.97;;;18.82;100.00
13434;BME280;6789;47.678;9.158;2022-07-05T04:08:14;97117.69;;;18.79;100.00
13434;BME280;6789;47.678;9.158;2022-07-05T04:14:00;97112.63;;;18.82;100.00
13434;BME280;6789;47.678;9.158;2022-07-05T04:19:47;97109.97;;;18.82;100.00
13434;BME280;6789;47.678;9.158;2022-07-05T04:25:15;97105.50;;;18.78;100.00
13434;BME280;6789;47.678;9.158;2022-07-05T04:31:13;97103.06;;;18.76;100.00
13434;BME280;6789;47.678;9.158;2022-07-05T04:49:59;97102.56;;;18.94;100.00
13434;BME280;6789;47.678;9.158;2022-07-05T04:55:18;97106.78;;;18.95;100.00
13434;BME280;6789;47.678;9.158;2022-07-05T05:01:17;97124.06;;;19.08;100.00
13434;BME280;6789;47.678;9.158;2022-07-05T05:12:03;97141.66;;;19.14;100.00
13434;BME280;6789;47.678;9.158;2022-07-05T05:24:28;97151.97;;;19.40;100.00
13434;BME280;6789;47.678;9.158;2022-07-05T05:29:37;97159.41;;;19.53;100.00
13434;BME280;6789;47.678;9.158;2022-07-05T06:19:41;97201.56;;;27.66;58.13
13434;BME280;6789;47.678;9.158;2022-07-05T06:24:33;97212.69;;;28.18;55.38
13434;BME280;6789;47.678;9.158;2022-07-05T06:29:25;97218.03;;;26.97;59.64
13434;BME280;6789;47.678;9.158;2022-07-05T06:34:17;97218.72;;;27.02;59.90
13434;BME280;6789;47.678;9.158;2022-07-05T06:39:09;97213.00;;;27.12;62.07
13434;BME280;6789;47.678;9.158;2022-07-05T06:44:16;97218.22;;;27.42;59.55
13434;BME280;6789;47.678;9.158;2022-07-05T06:49:24;97225.38;;;27.13;59.25
13434;BME280;6789;47.678;9.158;2022-07-05T06:54:34;97219.38;;;26.52;61.49
13434;BME280;6789;47.678;9.158;2022-07-05T06:59:58;97220.88;;;26.28;63.35
13434;BME280;6789;47.678;9.158;2022-07-05T07:05:14;97218.44;;;26.48;64.04
13434;BME280;6789;47.678;9.158;2022-07-05T07:10:24;97229.00;;;27.00;60.04
13434;BME280;6789;47.678;9.158;2022-07-05T07:15:38;97240.91;;;27.25;57.54
13434;BME280;6789;47.678;9.158;2022-07-05T07:21:16;97242.81;;;26.99;58.76
13434;BME280;6789;47.678;9.158;2022-07-05T07:26:41;97248.25;;;26.77;56.33
13434;BME280;6789;47.678;9.158;2022-07-05T07:32:37;97245.03;;;27.22;55.92
13434;BME280;6789;47.678;9.158;2022-07-05T07:38:30;97248.81;;;27.38;54.03
13434;BME280;6789;47.678;9.158;2022-07-05T07:43:58;97247.81;;;26.83;53.57
13434;BME280;6789;47.678;9.158;2022-07-05T07:49:18;97252.47;;;27.17;53.82
13434;BME280;6789;47.678;9.158;2022-07-05T07:54:44;97250.22;;;27.86;48.36
13434;BME280;6789;47.678;9.158;2022-07-05T08:00:09;97253.84;;;27.90;43.59
13434;BME280;6789;47.678;9.158;2022-07-05T08:05:26;97251.84;;;28.33;47.52
13434;BME280;6789;47.678;9.158;2022-07-05T08:10:36;97246.97;;;28.18;47.08
13434;BME280;6789;47.678;9.158;2022-07-05T08:22:20;97245.41;;;28.00;50.16
13434;BME280;6789;47.678;9.158;2022-07-05T08:28:10;97248.28;;;27.95;47.17
13434;BME280;6789;47.678;9.158;2022-07-05T08:33:46;97250.41;;;27.56;48.34
13434;BME280;6789;47.678;9.158;2022-07-05T08:39:09;97246.38;;;26.77;49.26
13434;BME280;6789;47.678;9.158;2022-07-05T08:44:41;97245.53;;;26.21;50.34
13434;BME280;6789;47.678;9.158;2022-07-05T08:55:17;97235.38;;;25.36;54.98
13434;BME280;6789;47.678;9.158;2022-07-05T09:00:42;97235.97;;;25.11;55.40
13434;BME280;6789;47.678;9.158;2022-07-05T09:05:49;97238.53;;;25.16;56.32
13434;BME280;6789;47.678;9.158;2022-07-05T09:11:14;97248.91;;;25.31;55.98
13434;BME280;6789;47.678;9.158;2022-07-05T21:40:14;97265.63;;;22.05;61.75
13434;BME280;6789;47.678;9.158;2022-07-05T22:24:37;97285.63;;;21.08;67.84
13434;BME280;6789;47.678;9.158;2022-07-05T23:05:57;97286.06;;;19.79;78.40
13434;BME280;6789;47.678;9.158;2022-07-05T23:10:49;97283.69;;;19.62;79.71
13434;BME280;6789;47.678;9.158;2022-07-05T23:26:34;97294.03;;;19.19;78.77
13434;BME280;6789;47.678;9.158;2022-07-05T23:32:10;97297.97;;;19.07;81.15
13434;BME280;6789;47.678;9.158;2022-07-05T23:59:50;97318.53;;;18.55;80.59
